Hovedside
METAR-TAF:

METAR-TAF

Lufthavner :

Comiso, Italia

breddegrad: 36-59-30N, lengdegrad: 14-36-25E, høyde over havet: 190 m

Gjeldene værobservasjon

Denne rapporten ble laget for 4 timer og 37 minutter siden, klokken 21:50 UTC
Vind 10 kt fra Nordøst med vindkast opp mot 21 kt, skiftende mellom Nord og Sørøst
Temperatur 14°C
Luftfuktighet 72%
Trykk 1018 hPa
Sikt 10 km eller mer
Få skyer i en høyde av 3000 ft

METAR: LICB 202150Z 05010G21KT 350V130 9999 FEW030 14/09 Q1018

Tid: 03:27 (02:27 UTC)

Varsel

Denne rapporten ble laget for 6 timer og 27 minutter siden, klokken 20:00 UTC
Varsel gyldig fra 20. klokken 21 UTC til 21. klokken 06 UTC
Vind 20 kt fra Øst med vindkast opp mot 35 kt
Sikt 10 km eller mer
Få skyer i en høyde av 3000 ft

TAF: LICB 202000Z 2021/2106 10020G35KT 9999 FEW030

Værobservasjoner og værvarsel for over 4000 flyplasser (METAR- og TAF-rapporter).

Tilgjengelige stasjoner er representert av de røde og gule prikkene på kartet.

Hold musepekeren over prikken for å se navnet på stasjonen.

Klikk så for å se værobservasjoner og -varsler.

For å forandre kartet kan du klikke på den grønne knappen med svart kryss for å zoome inn, på den grønne knappen med strek for å zoome ut, eller på de grønne pilene for å se tilstøtende kart.


METAR-TAF: